createdAt,value
2022-12-29T00:00:13.654Z,98068.50
2022-12-29T00:03:15.330Z,98074.91
2022-12-29T00:06:16.982Z,98083.88
2022-12-29T00:09:18.574Z,98077.91
2022-12-29T00:12:20.080Z,98071.97
2022-12-29T00:15:39.994Z,98080.72
2022-12-29T00:18:41.590Z,98080.78
2022-12-29T00:22:01.586Z,98074.75
2022-12-29T00:25:22.357Z,98075.03
2022-12-29T00:28:42.533Z,98074.66
2022-12-29T00:32:16.360Z,98071.50
2022-12-29T00:35:39.486Z,98065.38
2022-12-29T00:39:01.127Z,98063.19
2022-12-29T00:42:39.025Z,98053.25
2022-12-29T00:45:42.203Z,98061.34
2022-12-29T00:49:02.411Z,98066.13
2022-12-29T00:52:05.900Z,98062.41
2022-12-29T00:55:07.646Z,98058.66
2022-12-29T00:58:09.148Z,98061.00
2022-12-29T01:01:10.958Z,98081.66
2022-12-29T01:04:12.749Z,98079.91
2022-12-29T01:07:14.311Z,98079.28
2022-12-29T01:10:16.199Z,98083.84
2022-12-29T01:13:17.731Z,98091.00
2022-12-29T01:16:19.494Z,98090.78
2022-12-29T01:19:21.127Z,98107.34
2022-12-29T01:22:22.615Z,98098.28
2022-12-29T01:25:24.206Z,98100.59
2022-12-29T01:28:26.338Z,98110.19
2022-12-29T01:31:28.057Z,98100.06
2022-12-29T01:34:29.827Z,98103.56
2022-12-29T01:37:31.348Z,98095.66
2022-12-29T01:40:32.925Z,98102.25
2022-12-29T01:43:44.970Z,98104.63
2022-12-29T01:46:46.987Z,98110.94
2022-12-29T01:49:48.539Z,98120.31
2022-12-29T01:53:17.415Z,98113.47
2022-12-29T01:56:19.926Z,98102.16
2022-12-29T01:59:23.968Z,98116.00
2022-12-29T02:02:25.627Z,98097.34
2022-12-29T02:05:29.280Z,98087.22
2022-12-29T02:08:30.788Z,98076.94
2022-12-29T02:11:32.291Z,98096.47
2022-12-29T02:14:34.882Z,98079.50
2022-12-29T02:17:41.074Z,98085.63
2022-12-29T02:21:01.002Z,98082.19
2022-12-29T02:24:24.950Z,98085.94
2022-12-29T02:28:08.269Z,98093.16
2022-12-29T02:31:42.333Z,98105.09
2022-12-29T02:34:59.076Z,98092.91
2022-12-29T02:38:12.257Z,98094.56
2022-12-29T02:41:19.562Z,98095.72
2022-12-29T02:44:28.075Z,98087.81
2022-12-29T02:47:44.934Z,98099.19
2022-12-29T02:50:54.179Z,98110.66
2022-12-29T02:54:14.307Z,98101.09
2022-12-29T02:57:36.151Z,98072.91
2022-12-29T03:00:39.152Z,98084.22
2022-12-29T03:04:11.614Z,98063.13
2022-12-29T03:07:27.642Z,98065.06
2022-12-29T03:11:00.502Z,98067.44
2022-12-29T03:14:25.802Z,98048.59
2022-12-29T03:17:41.760Z,98047.38
2022-12-29T03:20:48.757Z,98050.88
2022-12-29T03:23:51.091Z,98024.06
2022-12-29T03:26:52.538Z,98026.69
2022-12-29T03:29:56.002Z,98030.06
2022-12-29T03:32:59.952Z,98039.53
2022-12-29T03:36:04.190Z,98032.50
2022-12-29T03:39:15.164Z,98043.00
2022-12-29T03:42:19.867Z,98052.47
2022-12-29T03:45:24.256Z,98044.56
2022-12-29T03:48:25.807Z,98052.44
2022-12-29T03:51:27.380Z,98033.25
2022-12-29T03:54:28.929Z,98057.69
2022-12-29T03:57:30.439Z,98067.44
2022-12-29T04:00:32.019Z,98086.50
2022-12-29T04:03:33.691Z,98083.16
2022-12-29T04:06:36.132Z,98073.34
2022-12-29T04:09:37.691Z,98062.47
2022-12-29T04:12:39.244Z,98047.19
2022-12-29T04:15:40.831Z,98063.94
2022-12-29T04:18:42.463Z,98053.09
2022-12-29T04:21:43.991Z,98054.22
2022-12-29T04:24:45.533Z,98054.88
2022-12-29T04:27:47.018Z,98051.41
2022-12-29T04:30:48.831Z,98064.72
2022-12-29T04:33:50.428Z,98048.34
2022-12-29T04:36:51.998Z,98061.34
2022-12-29T04:39:53.592Z,98061.34
2022-12-29T04:42:55.114Z,98057.22
2022-12-29T04:45:56.706Z,98040.13
2022-12-29T04:48:58.294Z,98072.25
2022-12-29T04:51:59.793Z,98047.03
2022-12-29T04:55:01.446Z,98046.16
2022-12-29T04:58:02.980Z,98051.28
2022-12-29T05:01:04.494Z,98054.41
2022-12-29T05:04:06.068Z,98052.09
2022-12-29T05:07:07.595Z,98064.22
2022-12-29T05:10:09.349Z,98052.22
2022-12-29T05:13:10.855Z,98061.59
2022-12-29T05:16:12.470Z,98055.53
2022-12-29T05:19:14.071Z,98050.91
2022-12-29T05:22:16.070Z,98046.47
2022-12-29T05:25:19.991Z,98048.28
2022-12-29T05:28:21.558Z,98046.91
2022-12-29T05:31:23.149Z,98021.50
2022-12-29T05:34:24.830Z,98031.97
2022-12-29T05:37:26.348Z,98047.69
2022-12-29T05:40:27.884Z,98023.38
2022-12-29T05:43:29.431Z,98018.94
2022-12-29T05:46:31.145Z,98036.38
2022-12-29T05:49:33.342Z,98005.91
2022-12-29T05:52:35.192Z,98033.06
2022-12-29T05:55:36.711Z,98039.56
2022-12-29T05:58:38.279Z,98023.78
2022-12-29T06:01:39.861Z,98030.03
2022-12-29T06:04:41.439Z,98028.97
2022-12-29T06:07:43.099Z,98037.50
2022-12-29T06:10:44.708Z,98041.06
2022-12-29T06:13:46.218Z,98030.03
2022-12-29T06:16:47.803Z,98050.19
2022-12-29T06:19:49.375Z,98016.25
2022-12-29T06:22:50.897Z,98023.78
2022-12-29T06:25:52.444Z,98029.19
2022-12-29T06:28:53.996Z,98031.16
2022-12-29T06:31:59.043Z,98025.78
2022-12-29T06:35:00.711Z,98031.09
2022-12-29T06:38:02.220Z,98000.88
2022-12-29T06:41:03.834Z,98002.88
2022-12-29T06:44:05.412Z,98023.06
2022-12-29T06:47:06.962Z,98014.00
2022-12-29T06:50:09.176Z,98002.97
2022-12-29T06:53:10.697Z,98009.41
2022-12-29T06:56:12.223Z,98016.47
2022-12-29T06:59:13.824Z,98009.75
2022-12-29T07:02:17.708Z,97995.13
2022-12-29T07:05:19.313Z,98015.16
2022-12-29T07:08:21.082Z,98005.53
2022-12-29T07:11:22.621Z,98013.31
2022-12-29T07:14:24.179Z,97995.13
2022-12-29T07:17:25.764Z,98004.41
2022-12-29T07:20:27.467Z,98009.53
2022-12-29T07:23:29.054Z,97985.63
2022-12-29T07:26:36.148Z,97990.19
2022-12-29T07:29:38.655Z,97986.91
2022-12-29T07:32:40.147Z,98015.34
2022-12-29T07:35:41.672Z,98016.72
2022-12-29T07:38:43.341Z,98028.50
2022-12-29T07:41:44.905Z,98024.06
2022-12-29T07:44:46.474Z,98002.72
2022-12-29T07:47:51.079Z,98049.69
2022-12-29T07:50:53.074Z,98048.25
2022-12-29T07:53:54.590Z,98057.59
2022-12-29T07:56:56.161Z,98054.59
2022-12-29T07:59:57.687Z,98061.38
2022-12-29T08:02:59.277Z,98065.75
2022-12-29T08:06:00.855Z,98064.22
2022-12-29T08:09:11.094Z,98060.69
2022-12-29T08:12:16.498Z,98068.66
2022-12-29T08:15:18.136Z,98074.06
2022-12-29T08:18:19.643Z,98075.59
2022-12-29T08:21:21.169Z,98082.47
2022-12-29T08:24:22.715Z,98070.66
2022-12-29T08:27:24.227Z,98082.97
2022-12-29T08:30:25.785Z,98075.25
2022-12-29T08:33:27.392Z,98087.22
2022-12-29T08:36:28.958Z,98099.56
2022-12-29T08:39:30.531Z,98093.56
2022-12-29T08:42:32.480Z,98102.16
2022-12-29T08:45:34.307Z,98097.03
2022-12-29T08:48:35.848Z,98103.94
2022-12-29T08:51:37.735Z,98116.28
2022-12-29T08:54:39.285Z,98121.97
2022-12-29T08:57:40.831Z,98142.13
2022-12-29T09:00:43.146Z,98116.81
2022-12-29T09:07:06.668Z,98118.53
2022-12-29T09:10:08.385Z,98118.75
2022-12-29T09:13:10.128Z,98126.78
2022-12-29T09:16:11.759Z,98119.84
2022-12-29T09:19:13.351Z,98122.22
2022-12-29T09:22:14.869Z,98123.94
2022-12-29T09:25:16.596Z,98137.25
2022-12-29T09:28:18.102Z,98134.34
2022-12-29T09:31:19.670Z,98134.53
2022-12-29T09:34:21.294Z,98137.06
2022-12-29T09:37:22.883Z,98127.38
2022-12-29T09:40:31.070Z,98120.09
2022-12-29T09:43:49.599Z,98114.63
2022-12-29T09:46:52.088Z,98119.19
2022-12-29T09:50:33.381Z,98115.66
2022-12-29T09:53:40.323Z,98105.13
2022-12-29T09:56:41.874Z,98115.63
2022-12-29T09:59:43.789Z,98141.69
2022-12-29T10:03:21.859Z,98123.25
2022-12-29T10:06:23.350Z,98130.25
2022-12-29T10:09:27.814Z,98138.88
2022-12-29T10:12:48.195Z,98120.47
2022-12-29T10:15:58.642Z,98115.22
2022-12-29T10:19:33.443Z,98114.47
2022-12-29T10:22:50.246Z,98112.69
2022-12-29T10:25:51.780Z,98104.84
2022-12-29T10:28:58.059Z,98120.69
2022-12-29T10:32:01.172Z,98119.91
2022-12-29T10:35:22.546Z,98119.06
2022-12-29T10:38:30.201Z,98112.31
2022-12-29T10:41:38.106Z,98124.47
2022-12-29T10:44:39.659Z,98124.50
2022-12-29T10:47:52.871Z,98117.56
2022-12-29T10:51:01.440Z,98102.13
2022-12-29T10:54:12.441Z,98111.03
2022-12-29T10:57:37.618Z,98111.00
2022-12-29T11:00:39.178Z,98110.25
2022-12-29T11:03:46.797Z,98111.19
2022-12-29T11:06:48.364Z,98103.13
2022-12-29T11:09:49.921Z,98104.47
2022-12-29T11:12:58.781Z,98106.19
2022-12-29T11:16:01.939Z,98109.91
2022-12-29T11:19:03.661Z,98103.13
2022-12-29T11:22:26.156Z,98116.41
2022-12-29T11:25:27.548Z,98106.94
2022-12-29T11:28:31.592Z,98106.13
2022-12-29T11:31:43.385Z,98102.66
2022-12-29T11:34:44.986Z,98119.28
2022-12-29T11:37:46.514Z,98110.50
2022-12-29T11:40:48.067Z,98109.53
2022-12-29T11:43:49.654Z,98097.38
2022-12-29T11:46:52.200Z,98107.72
2022-12-29T11:49:55.044Z,98105.03
2022-12-29T11:53:05.682Z,98107.66
2022-12-29T11:56:09.833Z,98109.50
2022-12-29T11:59:32.751Z,98109.59
2022-12-29T12:02:42.479Z,98108.75
2022-12-29T12:05:56.879Z,98101.69
2022-12-29T12:09:04.407Z,98100.06
2022-12-29T12:12:05.960Z,98082.44
2022-12-29T12:15:13.751Z,98087.16
2022-12-29T12:18:31.607Z,98085.44
2022-12-29T12:21:33.665Z,98078.41
2022-12-29T12:24:35.037Z,98078.50
2022-12-29T12:27:43.273Z,98072.41
2022-12-29T12:30:46.947Z,98074.22
2022-12-29T12:33:50.396Z,98076.09
2022-12-29T12:36:58.977Z,98060.22
2022-12-29T12:40:25.733Z,98058.66
2022-12-29T12:43:34.707Z,98049.94
2022-12-29T12:47:10.408Z,98051.56
2022-12-29T12:50:23.792Z,98044.66
2022-12-29T12:53:27.459Z,98058.53
2022-12-29T12:56:53.242Z,98046.31
2022-12-29T13:00:24.438Z,98047.34
2022-12-29T13:03:46.231Z,98039.38
2022-12-29T13:07:14.108Z,98034.34
2022-12-29T13:10:18.567Z,98036.97
2022-12-29T13:13:25.844Z,98035.16
2022-12-29T13:16:32.754Z,98034.31
2022-12-29T13:19:46.442Z,98029.03
2022-12-29T13:23:03.425Z,98019.50
2022-12-29T13:26:10.946Z,98034.19
2022-12-29T13:29:32.789Z,98036.94
2022-12-29T13:32:43.281Z,98038.59
2022-12-29T13:36:13.869Z,98019.59
2022-12-29T13:39:22.387Z,98023.25
2022-12-29T13:42:23.920Z,98021.72
2022-12-29T13:45:26.303Z,98009.66
2022-12-29T13:49:00.328Z,98007.06
2022-12-29T13:52:19.504Z,98015.84
2022-12-29T13:55:50.730Z,98012.16
2022-12-29T13:59:04.748Z,98008.78
2022-12-29T14:02:17.371Z,98000.16
2022-12-29T14:05:18.913Z,98003.25
2022-12-29T14:08:21.371Z,98017.34
2022-12-29T14:11:25.800Z,98004.25
2022-12-29T14:14:29.868Z,98005.09
2022-12-29T14:17:31.406Z,98006.09
2022-12-29T14:20:33.051Z,98000.94
2022-12-29T14:23:42.304Z,98010.53
2022-12-29T14:26:43.851Z,98003.66
2022-12-29T14:29:46.545Z,98023.72
2022-12-29T14:33:02.250Z,98022.88
2022-12-29T14:36:19.485Z,98029.06
2022-12-29T14:39:41.294Z,98034.94
2022-12-29T14:42:42.964Z,98041.66
2022-12-29T14:45:44.529Z,98024.22
2022-12-29T14:48:46.094Z,98035.56
2022-12-29T14:51:48.380Z,98033.03
2022-12-29T14:54:58.022Z,98038.97
2022-12-29T14:58:02.729Z,98033.81
2022-12-29T15:01:04.349Z,98049.41
2022-12-29T15:04:18.441Z,98049.06
2022-12-29T15:07:20.021Z,98070.25
2022-12-29T15:10:23.909Z,98054.03
2022-12-29T15:13:33.315Z,98058.53
2022-12-29T15:16:37.643Z,98038.09
2022-12-29T15:19:39.609Z,98026.88
2022-12-29T15:22:49.863Z,98010.59
2022-12-29T15:25:59.372Z,98009.97
2022-12-29T15:29:01.054Z,97998.03
2022-12-29T15:32:16.553Z,97967.78
2022-12-29T15:35:29.151Z,97950.50
2022-12-29T15:38:37.114Z,97939.41
2022-12-29T15:42:01.467Z,97922.03
2022-12-29T15:45:11.371Z,97917.75
2022-12-29T15:48:22.318Z,97909.09
2022-12-29T15:51:32.056Z,97891.88
2022-12-29T15:54:33.766Z,97883.25
2022-12-29T15:57:39.389Z,97871.19
2022-12-29T16:00:40.976Z,97868.56
2022-12-29T16:03:42.625Z,97866.00
2022-12-29T16:06:58.731Z,97854.75
2022-12-29T16:10:01.301Z,97863.44
2022-12-29T16:13:22.923Z,97851.31
2022-12-29T16:16:32.691Z,97852.31
2022-12-29T16:19:38.518Z,97853.22
2022-12-29T16:22:41.054Z,97848.88
2022-12-29T16:25:42.616Z,97844.56
2022-12-29T16:28:44.138Z,97829.81
2022-12-29T16:32:01.580Z,97819.47
2022-12-29T16:35:46.758Z,97809.03
2022-12-29T16:38:48.250Z,97796.94
2022-12-29T16:41:50.807Z,97811.75
2022-12-29T16:44:53.478Z,97805.75
2022-12-29T16:48:07.222Z,97810.13
2022-12-29T16:51:20.971Z,97817.97
2022-12-29T16:54:35.827Z,97816.22
2022-12-29T16:57:37.370Z,97806.72
2022-12-29T17:00:38.927Z,97818.00
2022-12-29T17:03:42.317Z,97818.88
2022-12-29T17:06:43.891Z,97819.72
2022-12-29T17:09:45.519Z,97819.75
2022-12-29T17:12:48.147Z,97815.41
2022-12-29T17:15:49.690Z,97804.13
2022-12-29T17:18:51.299Z,97806.75
2022-12-29T17:21:52.818Z,97808.50
2022-12-29T17:24:55.327Z,97806.78
2022-12-29T17:28:01.415Z,97787.75
2022-12-29T17:31:03.814Z,97800.72
2022-12-29T17:34:05.378Z,97795.53
2022-12-29T17:37:25.380Z,97804.22
2022-12-29T17:40:29.086Z,97788.66
2022-12-29T17:43:36.775Z,97797.28
2022-12-29T17:46:38.757Z,97804.22
2022-12-29T17:49:40.373Z,97806.81
2022-12-29T17:52:42.926Z,97807.69
2022-12-29T17:55:44.492Z,97809.44
2022-12-29T17:58:46.131Z,97807.69
2022-12-29T18:01:48.346Z,97801.59
2022-12-29T18:04:49.962Z,97800.72
2022-12-29T18:07:52.149Z,97798.13
2022-12-29T18:10:54.000Z,97804.22
2022-12-29T18:13:55.632Z,97801.59
2022-12-29T18:16:57.234Z,97807.66
2022-12-29T18:19:58.750Z,97816.34
2022-12-29T18:23:00.305Z,97817.19
2022-12-29T18:26:12.579Z,97817.22
2022-12-29T18:29:14.077Z,97819.78
2022-12-29T18:32:15.968Z,97812.00
2022-12-29T18:35:26.419Z,97807.66
2022-12-29T18:38:28.023Z,97811.13
2022-12-29T18:41:29.893Z,97818.94
2022-12-29T18:44:31.607Z,97822.41
2022-12-29T18:47:33.153Z,97831.97
2022-12-29T18:50:34.680Z,97813.78
2022-12-29T18:53:37.898Z,97829.44
2022-12-29T18:56:39.493Z,97841.53
2022-12-29T18:59:41.218Z,97838.06
2022-12-29T19:02:43.578Z,97835.53
2022-12-29T19:05:45.570Z,97834.69
2022-12-29T19:08:47.146Z,97845.97
2022-12-29T19:11:48.694Z,97863.28
2022-12-29T19:14:50.251Z,97859.84
2022-12-29T19:18:15.977Z,97857.28
2022-12-29T19:21:13.749Z,97863.31
2022-12-29T19:24:15.341Z,97877.19
2022-12-29T19:27:16.827Z,97863.38
2022-12-29T19:30:19.443Z,97865.97
2022-12-29T19:33:21.631Z,97880.69
2022-12-29T19:36:23.341Z,97880.69
2022-12-29T19:39:24.929Z,97865.09
2022-12-29T19:42:26.467Z,97872.91
2022-12-29T19:45:27.976Z,97872.91
2022-12-29T19:48:29.492Z,97878.97
2022-12-29T19:51:31.096Z,97884.16
2022-12-29T19:54:32.652Z,97876.38
2022-12-29T19:57:34.206Z,97886.78
2022-12-29T20:00:35.764Z,97886.75
2022-12-29T20:03:38.596Z,97888.50
2022-12-29T20:06:40.154Z,97887.63
2022-12-29T20:09:41.660Z,97891.09
2022-12-29T20:12:43.246Z,97898.00
2022-12-29T20:15:44.797Z,97911.00
2022-12-29T20:18:46.907Z,97924.81
2022-12-29T20:21:48.930Z,97927.44
2022-12-29T20:24:52.129Z,97927.44
2022-12-29T20:27:57.889Z,97932.63
2022-12-29T20:31:04.341Z,97945.59
2022-12-29T20:34:05.979Z,97947.31
2022-12-29T20:37:07.545Z,97952.53
2022-12-29T20:40:09.112Z,97960.28
2022-12-29T20:43:10.643Z,97960.28
2022-12-29T20:46:18.153Z,97951.63
2022-12-29T20:49:21.925Z,97954.25
2022-12-29T20:52:23.455Z,97965.44
2022-12-29T20:55:24.984Z,97972.38
2022-12-29T20:58:26.634Z,97974.97
2022-12-29T21:01:28.365Z,97963.75
2022-12-29T21:04:56.924Z,97947.31
2022-12-29T21:07:51.474Z,97933.44
2022-12-29T21:10:53.038Z,97954.19
2022-12-29T21:13:54.574Z,97949.03
2022-12-29T21:16:56.178Z,97955.06
2022-12-29T21:19:57.825Z,97948.13
2022-12-29T21:23:00.542Z,97946.41
2022-12-29T21:26:02.135Z,97935.16
2022-12-29T21:29:04.112Z,97928.22
2022-12-29T21:32:06.642Z,97941.19
2022-12-29T21:35:09.022Z,97953.31
2022-12-29T21:38:10.611Z,97965.41
2022-12-29T21:41:14.946Z,97965.41
2022-12-29T21:44:34.981Z,97955.88
2022-12-29T21:47:59.342Z,97963.66
2022-12-29T21:51:30.409Z,97950.69
2022-12-29T21:54:50.914Z,97933.41
2022-12-29T21:58:11.081Z,97942.03
2022-12-29T22:01:32.095Z,97948.09
2022-12-29T22:04:52.321Z,97943.78
2022-12-29T22:08:12.426Z,97948.09
2022-12-29T22:11:50.716Z,97961.91
2022-12-29T22:14:52.242Z,97969.69
2022-12-29T22:17:54.292Z,97995.63
2022-12-29T22:20:55.860Z,97996.47
2022-12-29T22:23:57.467Z,98010.31
2022-12-29T22:26:59.269Z,98005.97
2022-12-29T22:30:00.877Z,98011.19
2022-12-29T22:33:02.607Z,98012.91
2022-12-29T22:36:04.817Z,98015.50
2022-12-29T22:39:06.378Z,98015.50
2022-12-29T22:42:08.233Z,98017.22
2022-12-29T22:45:10.068Z,98019.81
2022-12-29T22:48:11.622Z,98014.63
2022-12-29T22:51:13.889Z,98024.97
2022-12-29T22:54:15.505Z,98025.88
2022-12-29T22:57:17.113Z,98023.28
2022-12-29T23:00:18.837Z,98024.13
2022-12-29T23:03:20.888Z,98028.44
2022-12-29T23:06:22.944Z,98037.94
2022-12-29T23:09:24.499Z,98038.81
2022-12-29T23:12:27.636Z,98034.50
2022-12-29T23:15:29.235Z,98025.84
2022-12-29T23:18:30.996Z,98032.75
2022-12-29T23:21:32.585Z,98038.81
2022-12-29T23:24:34.136Z,98043.13
2022-12-29T23:27:35.936Z,98049.16
2022-12-29T23:30:37.495Z,98042.25
2022-12-29T23:33:39.145Z,98034.47
2022-12-29T23:36:41.097Z,98030.16
2022-12-29T23:39:42.649Z,98036.22
2022-12-29T23:42:44.318Z,98041.38
2022-12-29T23:45:50.667Z,98049.16
2022-12-29T23:48:52.874Z,98052.59
2022-12-29T23:51:54.471Z,98054.31
2022-12-29T23:54:56.317Z,98065.53
2022-12-29T23:57:57.932Z,98064.69
